createdAt,value
2019-03-05T00:00:11.589Z,15.23
2019-03-05T00:02:52.314Z,12.80
2019-03-05T00:05:32.891Z,18.77
2019-03-05T00:08:13.500Z,12.60
2019-03-05T00:10:54.419Z,12.03
2019-03-05T00:13:34.940Z,15.77
2019-03-05T00:16:15.499Z,16.53
2019-03-05T00:18:56.224Z,16.07
2019-03-05T00:21:36.931Z,16.27
2019-03-05T00:24:18.131Z,13.73
2019-03-05T00:26:58.759Z,18.03
2019-03-05T00:29:39.800Z,21.20
2019-03-05T00:32:20.409Z,10.67
2019-03-05T00:35:01.091Z,13.53
2019-03-05T00:37:41.771Z,14.03
2019-03-05T00:40:22.224Z,15.83
2019-03-05T00:43:02.654Z,13.83
2019-03-05T00:45:43.412Z,11.23
2019-03-05T00:48:23.936Z,12.13
2019-03-05T00:51:04.378Z,13.50
2019-03-05T00:53:44.742Z,18.70
2019-03-05T00:56:25.411Z,13.80
2019-03-05T00:59:06.176Z,13.77
2019-03-05T01:01:46.729Z,15.50
2019-03-05T01:04:27.945Z,10.83
2019-03-05T01:07:08.477Z,15.90
2019-03-05T01:09:48.800Z,10.90
2019-03-05T01:12:29.480Z,8.93
2019-03-05T01:15:10.453Z,17.90
2019-03-05T01:17:51.022Z,10.27
2019-03-05T01:20:31.313Z,12.33
2019-03-05T01:23:11.678Z,7.70
2019-03-05T01:25:52.175Z,9.13
2019-03-05T01:28:32.800Z,9.80
2019-03-05T01:31:32.583Z,11.40
2019-03-05T01:34:17.522Z,9.90
2019-03-05T01:37:00.028Z,9.07
2019-03-05T01:40:00.398Z,10.80
2019-03-05T01:42:40.901Z,8.13
2019-03-05T01:45:21.580Z,7.57
2019-03-05T01:48:02.132Z,10.80
2019-03-05T01:50:42.849Z,7.60
2019-03-05T01:53:23.696Z,8.90
2019-03-05T01:56:04.455Z,8.57
2019-03-05T01:58:45.096Z,10.23
2019-03-05T02:01:25.823Z,9.60
2019-03-05T02:04:06.737Z,12.30
2019-03-05T02:06:47.517Z,12.83
2019-03-05T02:09:28.276Z,12.80
2019-03-05T02:12:08.972Z,12.63
2019-03-05T02:14:49.711Z,11.77
2019-03-05T02:17:30.638Z,13.47
2019-03-05T02:20:11.705Z,14.73
2019-03-05T02:22:52.752Z,18.70
2019-03-05T02:25:33.662Z,16.90
2019-03-05T02:28:14.268Z,14.60
2019-03-05T02:30:55.424Z,19.77
2019-03-05T02:33:35.747Z,19.50
2019-03-05T02:36:16.499Z,16.67
2019-03-05T02:38:57.086Z,15.40
2019-03-05T02:41:37.964Z,17.27
2019-03-05T02:44:18.707Z,20.03
2019-03-05T02:46:59.142Z,23.40
2019-03-05T02:49:39.708Z,24.47
2019-03-05T02:52:20.498Z,19.53
2019-03-05T02:55:01.296Z,18.10
2019-03-05T02:57:41.912Z,17.50
2019-03-05T03:00:41.545Z,35.87
2019-03-05T03:03:27.809Z,23.17
2019-03-05T03:06:15.527Z,25.10
2019-03-05T03:08:56.575Z,19.47
2019-03-05T03:11:37.348Z,16.73
2019-03-05T03:14:18.225Z,23.87
2019-03-05T03:16:58.862Z,15.90
2019-03-05T03:19:39.636Z,20.43
2019-03-05T03:22:20.324Z,22.20
2019-03-05T03:25:01.050Z,25.20
2019-03-05T03:27:41.901Z,16.70
2019-03-05T03:30:22.861Z,21.33
2019-03-05T03:33:03.570Z,20.20
2019-03-05T03:35:44.264Z,20.37
2019-03-05T03:38:25.124Z,23.23
2019-03-05T03:41:05.906Z,26.83
2019-03-05T03:43:46.600Z,18.90
2019-03-05T03:46:27.694Z,26.40
2019-03-05T03:49:08.437Z,18.63
2019-03-05T03:51:51.420Z,19.90
2019-03-05T03:54:31.968Z,26.90
2019-03-05T03:57:12.536Z,15.80
2019-03-05T03:59:53.537Z,14.47
2019-03-05T04:02:34.378Z,15.67
2019-03-05T04:05:15.081Z,12.57
2019-03-05T04:07:55.870Z,16.20
2019-03-05T04:10:36.486Z,18.23
2019-03-05T04:13:17.331Z,21.97
2019-03-05T04:15:58.017Z,17.60
2019-03-05T04:18:38.713Z,16.77
2019-03-05T04:21:20.161Z,22.70
2019-03-05T04:24:01.100Z,21.73
2019-03-05T04:26:41.463Z,26.97
2019-03-05T04:29:22.360Z,24.60
2019-03-05T04:32:03.048Z,19.03
2019-03-05T04:34:43.900Z,25.50
2019-03-05T04:37:24.911Z,22.50
2019-03-05T04:40:05.306Z,26.13
2019-03-05T04:42:45.825Z,19.17
2019-03-05T04:45:28.043Z,19.47
2019-03-05T04:48:08.788Z,21.37
2019-03-05T04:51:08.624Z,26.97
2019-03-05T04:53:49.584Z,25.63
2019-03-05T04:56:30.373Z,25.30
2019-03-05T04:59:10.908Z,27.40
2019-03-05T05:01:51.684Z,16.73
2019-03-05T05:04:32.568Z,16.37
2019-03-05T05:07:13.020Z,25.10
2019-03-05T05:09:53.780Z,24.60
2019-03-05T05:12:34.233Z,15.80
2019-03-05T05:15:14.775Z,24.80
2019-03-05T05:17:55.165Z,17.93
2019-03-05T05:20:35.571Z,18.17
2019-03-05T05:23:16.369Z,16.47
2019-03-05T05:25:57.500Z,18.23
2019-03-05T05:28:38.156Z,19.17
2019-03-05T05:31:18.620Z,25.70
2019-03-05T05:33:59.286Z,16.20
2019-03-05T05:36:39.757Z,17.07
2019-03-05T05:39:20.717Z,12.67
2019-03-05T05:42:01.419Z,14.10
2019-03-05T05:44:41.962Z,16.13
2019-03-05T05:47:22.508Z,12.53
2019-03-05T05:50:03.172Z,15.57
2019-03-05T05:52:43.909Z,10.50
2019-03-05T05:55:24.475Z,12.83
2019-03-05T05:58:05.004Z,9.67
2019-03-05T06:00:48.244Z,9.47
2019-03-05T06:03:29.034Z,13.60
2019-03-05T06:06:10.008Z,9.20
2019-03-05T06:08:50.443Z,8.10
2019-03-05T06:11:31.167Z,11.60
2019-03-05T06:14:11.588Z,12.50
2019-03-05T06:16:52.093Z,12.90
2019-03-05T06:19:32.367Z,15.70
2019-03-05T06:22:12.836Z,17.60
2019-03-05T06:24:53.575Z,13.77
2019-03-05T06:27:34.398Z,14.57
2019-03-05T06:30:14.976Z,16.50
2019-03-05T06:32:55.653Z,13.43
2019-03-05T06:35:36.224Z,20.47
2019-03-05T06:38:16.630Z,17.00
2019-03-05T06:40:57.245Z,16.33
2019-03-05T06:43:38.217Z,20.10
2019-03-05T06:46:18.812Z,15.30
2019-03-05T06:48:59.654Z,15.53
2019-03-05T06:51:40.629Z,18.63
2019-03-05T06:54:21.252Z,18.60
2019-03-05T06:57:01.576Z,16.77
2019-03-05T06:59:42.093Z,20.10
2019-03-05T07:02:23.100Z,16.67
2019-03-05T07:05:03.648Z,17.63
2019-03-05T07:07:43.960Z,22.67
2019-03-05T07:10:24.738Z,22.20
2019-03-05T07:13:05.376Z,22.77
2019-03-05T07:15:45.841Z,15.43
2019-03-05T07:18:26.431Z,15.70
2019-03-05T07:21:07.064Z,16.23
2019-03-05T07:23:47.671Z,20.27
2019-03-05T07:26:28.239Z,20.10
2019-03-05T07:29:09.036Z,15.40
2019-03-05T07:31:50.245Z,21.87
2019-03-05T07:34:31.844Z,19.83
2019-03-05T07:37:13.256Z,15.27
2019-03-05T07:39:54.119Z,16.13
2019-03-05T07:42:35.272Z,21.20
2019-03-05T07:45:16.109Z,15.33
2019-03-05T07:47:57.132Z,16.53
2019-03-05T07:50:37.646Z,19.73
2019-03-05T07:53:18.099Z,20.43
2019-03-05T07:55:59.095Z,19.33
2019-03-05T07:58:39.911Z,13.47
2019-03-05T08:01:22.559Z,21.70
2019-03-05T08:04:03.483Z,16.30
2019-03-05T08:06:44.317Z,21.67
2019-03-05T08:09:24.865Z,15.80
2019-03-05T08:12:05.514Z,25.17
2019-03-05T08:14:45.912Z,15.10
2019-03-05T08:17:26.694Z,17.70
2019-03-05T08:20:07.428Z,13.00
2019-03-05T08:22:47.903Z,15.80
2019-03-05T08:25:28.207Z,18.80
2019-03-05T08:28:08.817Z,20.43
2019-03-05T08:30:49.259Z,13.23
2019-03-05T08:33:29.887Z,16.13
2019-03-05T08:36:10.441Z,17.17
2019-03-05T08:38:50.932Z,13.13
2019-03-05T08:41:31.473Z,18.77
2019-03-05T08:44:12.125Z,14.93
2019-03-05T08:46:52.830Z,14.70
2019-03-05T08:49:33.712Z,16.53
2019-03-05T08:52:14.400Z,14.77
2019-03-05T08:54:55.036Z,19.33
2019-03-05T08:57:35.693Z,19.07
2019-03-05T09:00:16.817Z,8.27
2019-03-05T09:02:57.649Z,11.00
2019-03-05T09:05:37.924Z,13.53
2019-03-05T09:08:18.377Z,9.87
2019-03-05T09:10:58.817Z,12.13
2019-03-05T09:13:39.397Z,10.17
2019-03-05T09:16:19.988Z,12.00
2019-03-05T09:19:00.539Z,12.90
2019-03-05T09:21:41.216Z,10.67
2019-03-05T09:24:21.761Z,27.73
2019-03-05T09:27:02.556Z,16.47
2019-03-05T09:29:43.205Z,21.20
2019-03-05T09:32:24.193Z,26.80
2019-03-05T09:35:04.829Z,13.93
2019-03-05T09:37:43.884Z,18.30
2019-03-05T09:40:31.808Z,12.30
2019-03-05T09:43:19.783Z,10.33
2019-03-05T09:46:07.697Z,11.60
2019-03-05T09:48:55.607Z,12.47
2019-03-05T09:51:43.572Z,10.37
2019-03-05T09:54:31.608Z,17.03
2019-03-05T09:57:19.624Z,15.83
2019-03-05T10:03:23.567Z,10.67
2019-03-05T10:06:11.621Z,14.60
2019-03-05T10:08:59.567Z,12.43
2019-03-05T10:11:47.485Z,19.00
2019-03-05T10:14:35.436Z,18.00
2019-03-05T10:17:23.344Z,15.63
2019-03-05T10:23:27.032Z,10.20
2019-03-05T10:26:10.353Z,11.77
2019-03-05T10:28:52.521Z,15.40
2019-03-05T10:31:33.410Z,14.17
2019-03-05T10:34:13.832Z,12.40
2019-03-05T10:36:54.290Z,13.00
2019-03-05T10:39:34.855Z,11.57
2019-03-05T10:42:15.137Z,9.57
2019-03-05T10:44:55.440Z,10.70
2019-03-05T10:47:35.761Z,17.07
2019-03-05T10:50:16.361Z,16.60
2019-03-05T10:52:56.844Z,13.03
2019-03-05T10:55:38.016Z,8.30
2019-03-05T10:58:18.685Z,9.77
2019-03-05T11:00:59.284Z,9.30
2019-03-05T11:03:39.828Z,14.13
2019-03-05T11:06:20.379Z,12.83
2019-03-05T11:09:01.037Z,16.80
2019-03-05T11:11:41.861Z,8.53
2019-03-05T11:14:22.734Z,8.83
2019-03-05T11:17:03.299Z,9.03
2019-03-05T11:19:44.142Z,6.20
2019-03-05T11:22:25.141Z,7.97
2019-03-05T11:25:05.604Z,8.90
2019-03-05T11:27:46.369Z,5.87
2019-03-05T11:30:35.782Z,5.90
2019-03-05T11:33:09.253Z,6.37
2019-03-05T11:35:50.020Z,7.20
2019-03-05T11:38:30.768Z,6.10
2019-03-05T11:41:11.534Z,12.10
2019-03-05T11:43:52.096Z,6.80
2019-03-05T11:46:32.550Z,9.60
2019-03-05T11:49:12.850Z,5.13
2019-03-05T11:51:53.620Z,10.60
2019-03-05T11:54:34.401Z,5.40
2019-03-05T11:57:15.161Z,7.50
2019-03-05T11:59:55.504Z,8.00
2019-03-05T12:02:36.260Z,4.97
2019-03-05T12:05:16.643Z,6.50
2019-03-05T12:07:57.193Z,10.73
2019-03-05T12:10:37.570Z,7.43
2019-03-05T12:13:17.817Z,6.00
2019-03-05T12:15:58.544Z,7.60
2019-03-05T12:18:39.012Z,4.73
2019-03-05T12:21:19.563Z,4.87
2019-03-05T12:24:00.273Z,6.70
2019-03-05T12:26:40.637Z,3.97
2019-03-05T12:29:21.309Z,3.80
2019-03-05T12:32:00.314Z,5.03
2019-03-05T12:34:48.204Z,7.80
2019-03-05T12:37:36.146Z,7.00
2019-03-05T12:40:24.135Z,4.43
2019-03-05T12:43:12.048Z,5.07
2019-03-05T12:45:59.976Z,6.90
2019-03-05T12:48:47.876Z,4.10
2019-03-05T12:51:35.881Z,5.67
2019-03-05T12:54:23.814Z,6.03
2019-03-05T12:57:11.712Z,7.10
2019-03-05T12:59:59.744Z,6.60
2019-03-05T13:02:47.633Z,5.50
2019-03-05T13:05:35.567Z,7.13
2019-03-05T13:08:23.484Z,4.30
2019-03-05T13:11:13.103Z,7.50
2019-03-05T13:14:05.690Z,8.30
2019-03-05T13:16:39.367Z,7.27
2019-03-05T13:19:18.680Z,5.40
2019-03-05T13:21:59.054Z,5.37
2019-03-05T13:24:39.588Z,12.93
2019-03-05T13:27:22.861Z,6.07
2019-03-05T13:30:02.739Z,5.93
2019-03-05T13:32:43.656Z,7.10
2019-03-05T13:35:25.324Z,9.40
2019-03-05T13:38:08.932Z,9.30
2019-03-05T13:40:49.641Z,9.30
2019-03-05T13:43:30.267Z,5.87
2019-03-05T13:46:10.801Z,5.17
2019-03-05T13:48:58.379Z,6.60
2019-03-05T13:51:34.717Z,6.13
2019-03-05T13:54:15.483Z,7.87
2019-03-05T13:56:56.564Z,8.37
2019-03-05T13:59:37.315Z,6.73
2019-03-05T14:02:18.148Z,7.53
2019-03-05T14:04:58.648Z,7.40
2019-03-05T14:07:39.493Z,8.60
2019-03-05T14:10:20.284Z,5.60
2019-03-05T14:13:00.797Z,11.07
2019-03-05T14:15:42.860Z,9.50
2019-03-05T14:18:23.793Z,9.13
2019-03-05T14:21:04.324Z,11.80
2019-03-05T14:23:44.914Z,9.20
2019-03-05T14:26:25.709Z,5.67
2019-03-05T14:29:06.377Z,8.90
2019-03-05T14:31:46.818Z,7.27
2019-03-05T14:34:27.595Z,9.97
2019-03-05T14:37:08.241Z,6.23
2019-03-05T14:39:49.378Z,7.93
2019-03-05T14:42:30.144Z,9.77
2019-03-05T14:45:10.965Z,11.53
2019-03-05T14:47:51.575Z,6.40
2019-03-05T14:50:32.428Z,7.00
2019-03-05T14:53:13.225Z,7.60
2019-03-05T14:55:54.619Z,7.13
2019-03-05T14:58:35.517Z,7.13
2019-03-05T15:01:16.280Z,7.63
2019-03-05T15:03:57.148Z,8.30
2019-03-05T15:06:37.832Z,7.37
2019-03-05T15:09:18.715Z,7.27
2019-03-05T15:11:59.868Z,13.63
2019-03-05T15:14:40.383Z,8.10
2019-03-05T15:17:21.139Z,6.97
2019-03-05T15:20:02.005Z,9.33
2019-03-05T15:22:43.026Z,11.60
2019-03-05T15:25:23.755Z,9.60
2019-03-05T15:28:04.665Z,10.60
2019-03-05T15:30:45.247Z,7.00
2019-03-05T15:33:25.994Z,9.17
2019-03-05T15:36:06.893Z,8.30
2019-03-05T15:38:47.312Z,7.07
2019-03-05T15:41:28.012Z,11.43
2019-03-05T15:44:08.700Z,15.23
2019-03-05T15:46:49.137Z,9.63
2019-03-05T15:49:29.589Z,8.10
2019-03-05T15:52:10.384Z,10.90
2019-03-05T15:54:51.140Z,7.30
2019-03-05T15:57:31.641Z,7.73
2019-03-05T16:00:12.658Z,8.33
2019-03-05T16:02:53.296Z,9.83
2019-03-05T16:05:34.131Z,7.10
2019-03-05T16:08:14.667Z,7.80
2019-03-05T16:10:58.469Z,8.40
2019-03-05T16:13:38.950Z,17.10
2019-03-05T16:16:19.445Z,7.57
2019-03-05T16:19:00.149Z,6.93
2019-03-05T16:21:42.609Z,10.00
2019-03-05T16:24:23.155Z,8.70
2019-03-05T16:27:03.833Z,9.87
2019-03-05T16:29:44.152Z,6.40
2019-03-05T16:32:40.284Z,8.83
2019-03-05T16:35:40.380Z,9.20
2019-03-05T16:38:42.777Z,9.40
2019-03-05T16:41:32.565Z,10.70
2019-03-05T16:44:18.745Z,14.90
2019-03-05T16:47:18.810Z,11.13
2019-03-05T16:50:07.412Z,8.47
2019-03-05T16:53:10.042Z,12.70
2019-03-05T16:56:09.442Z,10.10
2019-03-05T16:59:09.018Z,11.30
2019-03-05T17:02:09.323Z,7.90
2019-03-05T17:04:59.731Z,19.13
2019-03-05T17:07:59.816Z,14.10
2019-03-05T17:11:02.177Z,14.70
2019-03-05T17:13:42.821Z,13.07
2019-03-05T17:16:23.845Z,9.40
2019-03-05T17:19:04.784Z,12.43
2019-03-05T17:21:45.807Z,8.33
2019-03-05T17:24:27.081Z,14.60
2019-03-05T17:27:07.515Z,18.47
2019-03-05T17:29:48.509Z,12.97
2019-03-05T17:32:29.160Z,13.10
2019-03-05T17:35:10.080Z,14.17
2019-03-05T17:37:50.894Z,9.30
2019-03-05T17:40:31.620Z,15.50
2019-03-05T17:43:12.283Z,13.60
2019-03-05T17:45:52.818Z,17.80
2019-03-05T17:48:33.381Z,18.00
2019-03-05T17:51:14.489Z,11.37
2019-03-05T17:53:55.140Z,12.47
2019-03-05T17:56:35.908Z,10.60
2019-03-05T17:59:16.655Z,12.70
2019-03-05T18:01:57.359Z,16.87
2019-03-05T18:04:38.260Z,15.60
2019-03-05T18:07:19.064Z,15.03
2019-03-05T18:10:01.775Z,11.10
2019-03-05T18:12:42.592Z,12.50
2019-03-05T18:15:23.396Z,16.43
2019-03-05T18:18:03.963Z,13.03
2019-03-05T18:20:44.787Z,12.63
2019-03-05T18:23:25.766Z,13.03
2019-03-05T18:26:06.496Z,23.20
2019-03-05T18:28:47.207Z,16.10
2019-03-05T18:31:28.031Z,12.80
2019-03-05T18:34:08.794Z,15.33
2019-03-05T18:36:49.298Z,15.77
2019-03-05T18:39:30.012Z,19.30
2019-03-05T18:42:10.581Z,19.80
2019-03-05T18:44:51.266Z,15.13
2019-03-05T18:47:32.032Z,12.20
2019-03-05T18:50:12.912Z,16.20
2019-03-05T18:52:53.752Z,15.53
2019-03-05T18:55:34.381Z,8.87
2019-03-05T18:58:15.049Z,16.13
2019-03-05T19:00:55.920Z,11.17
2019-03-05T19:03:36.960Z,13.30
2019-03-05T19:06:17.648Z,14.00
2019-03-05T19:08:58.692Z,16.10
2019-03-05T19:11:39.400Z,17.67
2019-03-05T19:14:20.277Z,13.63
2019-03-05T19:17:00.892Z,14.20
2019-03-05T19:19:41.477Z,18.90
2019-03-05T19:22:22.182Z,17.30
2019-03-05T19:25:02.973Z,16.93
2019-03-05T19:27:43.815Z,15.30
2019-03-05T19:30:24.535Z,13.90
2019-03-05T19:33:05.092Z,12.93
2019-03-05T19:35:45.738Z,15.40
2019-03-05T19:38:26.504Z,16.50
2019-03-05T19:41:07.267Z,14.73
2019-03-05T19:43:47.927Z,16.63
2019-03-05T19:46:28.757Z,15.70
2019-03-05T19:49:09.446Z,12.20
2019-03-05T19:51:50.174Z,14.30
2019-03-05T19:54:31.049Z,14.87
2019-03-05T19:57:11.669Z,16.00
2019-03-05T19:59:52.401Z,18.47
2019-03-05T20:02:32.762Z,15.87
2019-03-05T20:05:13.447Z,16.53
2019-03-05T20:07:54.541Z,17.37
2019-03-05T20:10:35.481Z,14.83
2019-03-05T20:13:16.149Z,16.87
2019-03-05T20:15:56.985Z,13.17
2019-03-05T20:18:37.771Z,16.10
2019-03-05T20:21:18.634Z,13.40
2019-03-05T20:23:59.414Z,22.60
2019-03-05T20:26:40.272Z,15.43
2019-03-05T20:29:21.004Z,15.97
2019-03-05T20:32:01.723Z,20.63
2019-03-05T20:34:42.503Z,15.53
2019-03-05T20:37:23.304Z,21.03
2019-03-05T20:40:04.209Z,17.40
2019-03-05T20:42:44.971Z,23.17
2019-03-05T20:45:25.435Z,18.93
2019-03-05T20:48:06.405Z,16.53
2019-03-05T20:50:47.090Z,19.20
2019-03-05T20:53:27.746Z,19.63
2019-03-05T20:56:08.482Z,16.90
2019-03-05T20:58:48.938Z,23.60
2019-03-05T21:01:30.157Z,13.80
2019-03-05T21:04:10.803Z,15.63
2019-03-05T21:06:51.532Z,16.60
2019-03-05T21:09:32.226Z,18.93
2019-03-05T21:12:12.840Z,17.10
2019-03-05T21:14:53.384Z,24.73
2019-03-05T21:17:34.256Z,14.80
2019-03-05T21:20:14.996Z,16.60
2019-03-05T21:22:55.627Z,17.00
2019-03-05T21:25:36.425Z,20.53
2019-03-05T21:28:17.216Z,17.03
2019-03-05T21:30:58.076Z,15.20
2019-03-05T21:33:38.970Z,16.70
2019-03-05T21:36:19.606Z,19.33
2019-03-05T21:39:00.430Z,15.23
2019-03-05T21:41:41.236Z,17.17
2019-03-05T21:44:22.155Z,16.60
2019-03-05T21:47:02.511Z,18.97
2019-03-05T21:49:43.333Z,19.47
2019-03-05T21:52:24.045Z,20.37
2019-03-05T21:55:04.766Z,19.00
2019-03-05T21:57:45.751Z,18.73
2019-03-05T22:00:26.368Z,16.70
2019-03-05T22:03:07.017Z,19.33
2019-03-05T22:05:47.658Z,25.47
2019-03-05T22:08:28.239Z,19.47
2019-03-05T22:11:09.096Z,15.83
2019-03-05T22:13:49.621Z,19.43
2019-03-05T22:16:30.352Z,21.90
2019-03-05T22:19:11.242Z,17.83
2019-03-05T22:21:52.504Z,24.70
2019-03-05T22:24:33.102Z,19.97
2019-03-05T22:27:13.681Z,24.10
2019-03-05T22:29:54.149Z,20.77
2019-03-05T22:32:34.737Z,20.40
2019-03-05T22:35:15.285Z,19.20
2019-03-05T22:37:55.840Z,22.03
2019-03-05T22:40:36.347Z,21.87
2019-03-05T22:43:16.956Z,21.23
2019-03-05T22:45:57.688Z,19.40
2019-03-05T22:48:38.417Z,23.60
2019-03-05T22:51:19.184Z,15.53
2019-03-05T22:54:00.091Z,20.10
2019-03-05T22:56:40.597Z,19.37
2019-03-05T22:59:21.072Z,18.30
2019-03-05T23:02:01.838Z,24.03
2019-03-05T23:04:42.980Z,15.23
2019-03-05T23:07:23.628Z,21.30
2019-03-05T23:10:04.229Z,20.60
2019-03-05T23:12:44.909Z,17.00
2019-03-05T23:15:25.492Z,16.80
2019-03-05T23:18:05.778Z,16.47
2019-03-05T23:20:46.849Z,16.90
2019-03-05T23:23:27.521Z,18.60
2019-03-05T23:26:08.239Z,17.60
2019-03-05T23:28:49.280Z,15.10
2019-03-05T23:31:30.115Z,23.90
2019-03-05T23:34:18.062Z,16.30
2019-03-05T23:36:53.748Z,19.93
2019-03-05T23:39:34.703Z,16.57
2019-03-05T23:42:15.356Z,20.20
2019-03-05T23:44:55.877Z,28.27
2019-03-05T23:47:36.465Z,18.47
2019-03-05T23:50:17.087Z,11.33
2019-03-05T23:52:57.656Z,15.87
2019-03-05T23:55:38.467Z,12.93
2019-03-05T23:58:19.184Z,18.17
